Time;durP1;ratioP1;P1;durP2;ratioP2;P2;SDS_P1;SDS_P2;PMS_P1;PMS_P2;Temp;Humidity;BMP_temperature;BMP_pressure;BME280_temperature;BME280_humidity;BME280_pressure;Samples;Min_cycle;Max_cycle;Signal;HPM_P1;HPM_P2
2022/01/29 00:01:09;;;;;;;2.13;1.47;;;;;;;-0.69;73.35;96070.56;1762982;81;21028;-76
2022/01/29 00:03:36;;;;;;;4.03;1.70;;;;;;;-0.62;73.23;96069.06;1746320;82;21034;-76
2022/01/29 00:06:04;;;;;;;2.53;1.60;;;;;;;-0.64;73.32;96071.59;1762711;81;21029;-76
2022/01/29 00:08:31;;;;;;;3.50;2.10;;;;;;;-0.62;73.54;96071.23;1746290;82;21505;-77
2022/01/29 00:11:08;;;;;;;2.47;1.80;;;;;;;-0.58;73.59;96064.02;1762899;81;20997;-76
2022/01/29 00:13:29;;;;;;;3.27;1.70;;;;;;;-0.57;73.57;96063.60;1745179;82;21023;-76
2022/01/29 00:15:55;;;;;;;3.50;1.90;;;;;;;-0.55;73.24;96065.41;1762820;81;21076;-76
2022/01/29 00:18:22;;;;;;;3.17;1.13;;;;;;;-0.50;73.03;96076.80;1746389;82;21018;-76
2022/01/29 00:20:48;;;;;;;2.07;1.50;;;;;;;-0.48;72.29;96077.73;1762483;81;21513;-76
2022/01/29 00:23:14;;;;;;;1.93;1.13;;;;;;;-0.49;71.51;96087.62;1746272;82;21023;-76
2022/01/29 00:25:41;;;;;;;2.33;1.70;;;;;;;-0.40;72.03;96082.26;1762977;81;20997;-76
2022/01/29 00:28:07;;;;;;;2.73;1.50;;;;;;;-0.38;71.05;96085.78;1746314;82;20995;-76
2022/01/29 00:30:40;;;;;;;2.37;1.60;;;;;;;-0.38;71.01;96094.44;1762988;81;20989;-76
2022/01/29 00:33:05;;;;;;;3.90;2.07;;;;;;;-0.32;71.05;96098.53;1746104;82;21070;-76
2022/01/29 00:35:31;;;;;;;3.37;2.20;;;;;;;-0.25;71.52;96098.32;1762838;81;20994;-76
2022/01/29 00:37:58;;;;;;;4.97;2.10;;;;;;;-0.23;71.67;96110.50;1746290;82;21026;-76
2022/01/29 00:40:25;;;;;;;3.53;1.47;;;;;;;-0.28;71.58;96111.16;1762964;81;20984;-76
2022/01/29 00:42:51;;;;;;;4.00;2.00;;;;;;;-0.24;71.66;96122.11;1746316;82;21019;-76
2022/01/29 00:45:18;;;;;;;2.30;1.60;;;;;;;-0.24;71.51;96124.70;1762958;81;20985;-76
2022/01/29 00:47:45;;;;;;;2.30;1.60;;;;;;;-0.30;71.91;96140.95;1746414;82;21026;-77
2022/01/29 00:50:12;;;;;;;2.47;1.63;;;;;;;-0.35;72.96;96132.54;1762717;81;21000;-77
2022/01/29 00:52:39;;;;;;;5.13;2.00;;;;;;;-0.37;72.77;96129.05;1746259;82;21548;-76
2022/01/29 00:55:08;;;;;;;2.63;1.53;;;;;;;-0.41;73.44;96137.13;1762984;81;21036;-77
2022/01/29 00:57:38;;;;;;;2.77;2.00;;;;;;;-0.45;72.74;96142.64;1752658;82;21030;-76
2022/01/29 01:00:10;;;;;;;4.63;2.20;;;;;;;-0.44;73.69;96137.91;1767709;81;20993;-77
2022/01/29 01:02:37;;;;;;;2.57;1.80;;;;;;;-0.45;73.90;96145.23;1748618;82;21083;-77
2022/01/29 01:05:05;;;;;;;3.50;1.70;;;;;;;-0.49;73.54;96138.59;1767556;81;20957;-77
2022/01/29 01:07:32;;;;;;;2.97;1.43;;;;;;;-0.47;73.58;96136.94;1760061;81;21496;-77
2022/01/29 01:09:58;;;;;;;1.57;1.00;;;;;;;-0.48;72.95;96136.06;1759564;81;21541;-76
2022/01/29 01:12:25;;;;;;;3.30;1.20;;;;;;;-0.51;69.51;96123.40;1759788;81;21010;-76
2022/01/29 01:14:51;;;;;;;1.00;0.80;;;;;;;-0.40;70.72;96127.63;1759683;81;21009;-76
2022/01/29 01:17:18;;;;;;;1.50;1.00;;;;;;;-0.35;70.32;96128.27;1759519;81;21050;-76
2022/01/29 01:19:46;;;;;;;1.30;0.90;;;;;;;-0.36;68.59;96130.38;1759627;81;21013;-76
2022/01/29 01:22:15;;;;;;;2.80;1.10;;;;;;;-0.29;68.41;96136.22;1759559;81;21025;-76
2022/01/29 01:24:41;;;;;;;2.77;1.43;;;;;;;-0.28;68.52;96142.28;1759562;81;21042;-76
2022/01/29 01:27:07;;;;;;;2.27;1.60;;;;;;;-0.28;68.89;96144.48;1759660;81;21065;-76
2022/01/29 01:29:35;;;;;;;2.23;1.50;;;;;;;-0.26;69.79;96142.80;1759527;81;21046;-76
2022/01/29 01:32:02;;;;;;;4.83;1.80;;;;;;;-0.28;70.54;96143.19;1759495;81;20998;-76
2022/01/29 01:34:33;;;;;;;5.00;1.90;;;;;;;-0.28;71.16;96147.47;1759527;81;21010;-76
2022/01/29 01:37:02;;;;;;;1.67;1.17;;;;;;;-0.30;71.53;96149.16;1758892;81;21133;-77
2022/01/29 01:39:30;;;;;;;2.03;1.33;;;;;;;-0.33;71.97;96153.83;1758801;81;21031;-77
2022/01/29 01:42:03;;;;;;;2.97;1.80;;;;;;;-0.35;72.15;96167.55;1759033;81;21098;-77
2022/01/29 01:44:22;;;;;;;2.37;1.60;;;;;;;-0.38;72.13;96157.95;1757367;81;21022;-77
2022/01/29 01:46:49;;;;;;;3.30;1.57;;;;;;;-0.40;72.37;96162.23;1759550;81;20999;-77
2022/01/29 01:49:16;;;;;;;4.33;2.20;;;;;;;-0.39;72.71;96165.28;1759559;81;21010;-77
2022/01/29 01:51:48;;;;;;;7.33;2.70;;;;;;;-0.44;73.28;96163.83;1759111;81;21073;-77
2022/01/29 01:54:16;;;;;;;5.80;2.53;;;;;;;-0.41;73.44;96167.36;1759322;81;21629;-77
2022/01/29 01:56:42;;;;;;;4.27;2.50;;;;;;;-0.46;73.85;96169.80;1734946;81;21014;-77
2022/01/29 01:59:09;;;;;;;4.00;2.37;;;;;;;-0.50;73.98;96174.01;1767461;81;21049;-77
2022/01/29 02:01:35;;;;;;;4.87;2.27;;;;;;;-0.51;74.16;96176.54;1770596;81;21013;-77
2022/01/29 02:04:02;;;;;;;3.83;2.20;;;;;;;-0.50;73.67;96177.90;1767574;81;21045;-77
2022/01/29 02:06:30;;;;;;;4.67;2.13;;;;;;;-0.54;73.72;96182.50;1770543;81;20978;-77
2022/01/29 02:09:00;;;;;;;2.30;1.70;;;;;;;-0.57;73.50;96183.70;1767586;81;21020;-77
2022/01/29 02:11:28;;;;;;;2.80;1.80;;;;;;;-0.58;73.29;96181.05;1771006;81;21056;-77
2022/01/29 02:13:57;;;;;;;5.00;1.60;;;;;;;-0.67;72.81;96183.80;1767528;81;20977;-77
2022/01/29 02:16:27;;;;;;;4.00;1.70;;;;;;;-0.66;72.81;96188.17;1767642;81;20986;-77
2022/01/29 02:18:52;;;;;;;2.23;1.60;;;;;;;-0.69;72.75;96183.28;1767710;81;20980;-77
2022/01/29 02:21:21;;;;;;;3.83;1.80;;;;;;;-0.74;72.61;96181.83;1770179;81;21483;-77
2022/01/29 02:23:49;;;;;;;1.83;1.57;;;;;;;-0.79;72.16;96181.21;1767620;81;20992;-77
2022/01/29 02:26:16;;;;;;;3.17;1.90;;;;;;;-0.91;72.24;96180.36;1770493;81;21021;-77
2022/01/29 02:28:42;;;;;;;2.60;1.50;;;;;;;-0.92;72.33;96185.09;1767609;81;20953;-77
2022/01/29 02:31:09;;;;;;;2.13;1.27;;;;;;;-1.00;72.70;96189.13;1770691;81;21006;-77
2022/01/29 02:33:39;;;;;;;1.57;1.23;;;;;;;-1.07;72.90;96189.31;1767633;81;21024;-77
2022/01/29 02:36:05;;;;;;;3.57;1.80;;;;;;;-1.12;72.90;96183.97;1770197;81;21038;-78
2022/01/29 02:38:32;;;;;;;3.90;1.50;;;;;;;-1.11;73.39;96189.63;1767635;81;21490;-77
2022/01/29 02:41:02;;;;;;;2.53;1.67;;;;;;;-1.22;73.97;96190.06;1770618;81;21548;-77
2022/01/29 02:43:40;;;;;;;4.53;1.90;;;;;;;-1.23;74.05;96187.02;1767496;81;20974;-77
2022/01/29 02:46:29;;;;;;;3.33;1.60;;;;;;;-1.28;74.34;96187.27;1770556;81;21005;-77
2022/01/29 02:48:35;;;;;;;4.63;2.10;;;;;;;-1.31;74.50;96185.45;1755357;81;21480;-77
2022/01/29 02:51:01;;;;;;;2.30;1.67;;;;;;;-1.35;74.84;96198.67;1770442;81;21026;-77
2022/01/29 02:53:29;;;;;;;2.33;1.70;;;;;;;-1.34;74.46;96196.54;1767680;81;20997;-77
2022/01/29 02:55:56;;;;;;;2.43;1.50;;;;;;;-1.35;73.97;96200.38;1770588;81;21040;-77
2022/01/29 02:58:22;;;;;;;2.50;1.60;;;;;;;-1.34;73.35;96206.02;1762494;81;21011;-77
2022/01/29 03:00:48;;;;;;;2.20;1.43;;;;;;;-1.34;73.01;96212.07;1743126;82;21513;-77
2022/01/29 03:03:15;;;;;;;2.37;1.40;;;;;;;-1.38;72.74;96211.92;1762196;81;20973;-77
2022/01/29 03:05:41;;;;;;;1.97;1.50;;;;;;;-1.38;72.85;96212.80;1751763;81;21021;-78
2022/01/29 03:08:09;;;;;;;2.67;1.80;;;;;;;-1.37;72.81;96217.14;1751526;82;21027;-78
2022/01/29 03:10:35;;;;;;;2.53;1.47;;;;;;;-1.40;72.75;96223.51;1751661;81;21038;-77
2022/01/29 03:13:03;;;;;;;2.40;1.50;;;;;;;-1.39;72.53;96221.37;1751878;82;21483;-77
2022/01/29 03:15:30;;;;;;;2.30;1.10;;;;;;;-1.41;72.33;96227.31;1751758;82;21550;-77
2022/01/29 03:17:56;;;;;;;2.43;1.20;;;;;;;-1.41;72.24;96226.02;1751796;81;21040;-77
2022/01/29 03:20:23;;;;;;;5.07;1.60;;;;;;;-1.38;71.89;96228.33;1751757;81;21018;-78
2022/01/29 03:22:49;;;;;;;2.90;1.07;;;;;;;-1.35;71.83;96230.16;1751540;81;21049;-77
2022/01/29 03:25:16;;;;;;;1.87;1.27;;;;;;;-1.33;71.61;96234.98;1751896;81;21065;-77
2022/01/29 03:27:43;;;;;;;2.70;1.30;;;;;;;-1.35;70.96;96241.38;1751873;82;21445;-77
2022/01/29 03:30:11;;;;;;;2.87;1.43;;;;;;;-1.34;70.91;96240.55;1751700;81;20979;-77
2022/01/29 03:32:37;;;;;;;1.77;1.10;;;;;;;-1.29;71.11;96235.97;1751738;82;21543;-77
2022/01/29 03:35:05;;;;;;;2.23;1.43;;;;;;;-1.32;70.50;96236.31;1751855;82;21014;-77
2022/01/29 03:37:32;;;;;;;2.10;1.23;;;;;;;-1.35;70.50;96234.91;1751891;82;21508;-77
2022/01/29 03:40:02;;;;;;;2.07;1.20;;;;;;;-1.38;70.17;96236.09;1751761;81;21006;-77
2022/01/29 03:42:33;;;;;;;0.97;0.80;;;;;;;-1.33;70.44;96245.34;1751804;82;21508;-77
2022/01/29 03:44:58;;;;;;;3.00;1.30;;;;;;;-1.37;70.55;96251.21;1751234;82;21006;-78
2022/01/29 03:47:25;;;;;;;3.10;1.43;;;;;;;-1.38;70.41;96251.63;1751741;81;20979;-77
2022/01/29 03:49:51;;;;;;;2.77;1.20;;;;;;;-1.31;70.61;96251.05;1751791;81;21500;-77
2022/01/29 03:52:17;;;;;;;1.67;1.17;;;;;;;-1.29;70.44;96250.20;1751699;81;21022;-77
2022/01/29 03:54:44;;;;;;;2.00;1.30;;;;;;;-1.28;70.07;96250.69;1751735;81;21001;-77
2022/01/29 03:57:10;;;;;;;3.37;1.50;;;;;;;-1.30;69.99;96254.50;1756917;81;21538;-77
2022/01/29 03:59:37;;;;;;;1.73;1.23;;;;;;;-1.31;69.88;96258.81;1770314;81;21032;-77
2022/01/29 04:02:04;;;;;;;1.50;1.03;;;;;;;-1.29;70.08;96267.03;1767966;81;21511;-77
2022/01/29 04:04:30;;;;;;;4.30;1.77;;;;;;;-1.35;70.15;96267.69;1770271;81;20997;-78
2022/01/29 04:07:04;;;;;;;2.20;1.33;;;;;;;-1.31;70.18;96265.28;1768006;81;21072;-78
2022/01/29 04:09:27;;;;;;;1.60;1.00;;;;;;;-1.23;70.58;96265.98;1769374;81;21029;-77
2022/01/29 04:11:53;;;;;;;2.17;1.27;;;;;;;-1.20;69.68;96263.50;1768112;81;21042;-77
2022/01/29 04:14:20;;;;;;;1.07;0.93;;;;;;;-1.20;69.58;96261.79;1770506;81;21013;-77
2022/01/29 04:16:47;;;;;;;2.37;1.03;;;;;;;-1.24;69.90;96263.78;1768040;81;21052;-77
2022/01/29 04:19:14;;;;;;;2.00;1.10;;;;;;;-1.21;69.58;96263.02;1770342;81;20997;-78
2022/01/29 04:21:41;;;;;;;2.10;1.07;;;;;;;-1.17;69.62;96266.20;1767724;81;21503;-78
2022/01/29 04:24:08;;;;;;;3.67;1.50;;;;;;;-1.17;69.78;96260.60;1770485;81;20981;-77
2022/01/29 04:26:35;;;;;;;1.90;1.10;;;;;;;-1.14;69.96;96263.30;1767740;81;21021;-77
2022/01/29 04:29:06;;;;;;;2.07;0.87;;;;;;;-1.09;69.61;96262.18;1770501;81;21466;-77
2022/01/29 04:31:42;;;;;;;1.83;1.43;;;;;;;-1.09;69.69;96272.53;1768289;81;21014;-77
2022/01/29 04:34:04;;;;;;;1.97;1.23;;;;;;;-1.07;69.94;96270.89;1769848;81;21009;-77
2022/01/29 04:36:31;;;;;;;2.83;1.67;;;;;;;-1.08;69.61;96273.02;1767922;81;21531;-78
2022/01/29 04:38:57;;;;;;;3.47;1.80;;;;;;;-1.06;69.85;96279.11;1770493;81;21451;-77
2022/01/29 04:41:24;;;;;;;3.10;1.57;;;;;;;-1.04;70.05;96281.78;1767996;81;21057;-77
2022/01/29 04:43:50;;;;;;;2.87;1.77;;;;;;;-1.02;69.88;96276.25;1770511;81;21474;-77
2022/01/29 04:46:17;;;;;;;3.17;1.50;;;;;;;-1.05;70.06;96282.61;1768129;81;21072;-78
2022/01/29 04:48:43;;;;;;;4.60;1.97;;;;;;;-1.07;70.05;96285.55;1770469;81;21005;-77
2022/01/29 04:51:10;;;;;;;2.77;1.50;;;;;;;-1.09;70.39;96287.66;1751014;82;21010;-78
2022/01/29 04:53:36;;;;;;;1.97;1.60;;;;;;;-1.12;70.33;96293.14;1739367;81;21017;-78
2022/01/29 04:56:03;;;;;;;3.73;1.77;;;;;;;-1.14;70.35;96288.31;1768005;81;21034;-77
2022/01/29 04:58:29;;;;;;;3.43;1.80;;;;;;;-1.22;70.59;96291.91;1764240;81;21021;-77
2022/01/29 05:00:56;;;;;;;3.50;1.93;;;;;;;-1.26;70.66;96295.62;1751867;81;21337;-77
2022/01/29 05:03:22;;;;;;;1.83;1.30;;;;;;;-1.33;70.99;96298.41;1751848;81;21011;-77
2022/01/29 05:05:49;;;;;;;2.20;1.70;;;;;;;-1.40;71.24;96299.87;1751934;81;21472;-77
2022/01/29 05:08:16;;;;;;;3.27;1.97;;;;;;;-1.43;71.37;96305.34;1751617;81;20979;-77
2022/01/29 05:10:43;;;;;;;4.80;2.50;;;;;;;-1.47;71.59;96303.03;1751862;81;21491;-77
2022/01/29 05:13:13;;;;;;;3.23;1.87;;;;;;;-1.44;71.71;96299.27;1751832;82;20983;-77
2022/01/29 05:15:48;;;;;;;5.30;2.53;;;;;;;-1.46;71.69;96302.23;1751368;82;21018;-77
2022/01/29 05:29:13;;;;;;;2.87;1.90;;;;;;;-1.47;71.69;96313.80;1751734;82;20987;-77
2022/01/29 05:31:40;;;;;;;2.40;1.60;;;;;;;-1.45;71.67;96309.16;1751924;82;21010;-77
2022/01/29 05:34:06;;;;;;;1.77;1.03;;;;;;;-1.46;71.29;96314.27;1751955;81;21029;-77
2022/01/29 05:36:32;;;;;;;2.73;1.47;;;;;;;-1.47;71.42;96320.27;1751663;82;21108;-78
2022/01/29 05:38:59;;;;;;;3.03;1.60;;;;;;;-1.47;71.34;96319.86;1751911;81;21531;-77
2022/01/29 05:41:28;;;;;;;2.67;1.43;;;;;;;-1.52;71.18;96323.55;1751954;81;21090;-78
2022/01/29 05:43:55;;;;;;;2.17;1.30;;;;;;;-1.45;71.08;96326.41;1751904;81;21094;-78
2022/01/29 05:46:21;;;;;;;1.63;1.17;;;;;;;-1.47;71.21;96322.86;1751807;82;20987;-77
2022/01/29 05:48:48;;;;;;;4.00;1.63;;;;;;;-1.49;71.23;96325.38;1751887;82;20990;-77
2022/01/29 05:51:14;;;;;;;2.53;1.73;;;;;;;-1.52;71.60;96327.86;1751827;82;21010;-77
2022/01/29 05:53:41;;;;;;;3.33;2.00;;;;;;;-1.53;71.46;96338.62;1751763;81;21436;-77
2022/01/29 05:56:08;;;;;;;3.50;1.97;;;;;;;-1.53;71.60;96345.09;1751887;81;21037;-77
2022/01/29 05:58:35;;;;;;;3.70;1.73;;;;;;;-1.50;71.83;96349.51;1762301;81;21033;-77
2022/01/29 06:01:01;;;;;;;2.37;1.43;;;;;;;-1.46;71.66;96347.91;1770316;81;21439;-77
2022/01/29 06:03:27;;;;;;;2.07;1.63;;;;;;;-1.51;71.45;96337.41;1767891;81;21061;-78
2022/01/29 06:05:54;;;;;;;3.07;1.50;;;;;;;-1.52;71.21;96346.84;1770358;81;21009;-78
2022/01/29 06:08:20;;;;;;;5.30;1.80;;;;;;;-1.54;71.38;96348.91;1767868;81;20986;-78
2022/01/29 06:10:48;;;;;;;1.70;1.40;;;;;;;-1.49;71.40;96351.67;1770249;81;21020;-78
2022/01/29 06:13:16;;;;;;;2.17;1.23;;;;;;;-1.50;71.22;96352.09;1767862;81;21499;-77
2022/01/29 06:15:49;;;;;;;2.80;1.70;;;;;;;-1.50;70.87;96354.69;1770321;81;21482;-77
2022/01/29 06:18:20;;;;;;;2.20;1.50;;;;;;;-1.52;70.82;96357.62;1768083;81;21057;-77
2022/01/29 06:20:50;;;;;;;2.37;1.70;;;;;;;-1.55;70.62;96354.91;1770337;81;21605;-77
2022/01/29 06:23:21;;;;;;;4.13;1.93;;;;;;;-1.54;70.38;96360.16;1750917;82;20982;-77
2022/01/29 06:25:46;;;;;;;6.27;3.40;;;;;;;-1.58;70.18;96366.03;1770265;81;21032;-77
2022/01/29 06:28:13;;;;;;;5.83;4.27;;;;;;;-1.49;70.36;96370.67;1768051;81;21010;-77
2022/01/29 06:30:39;;;;;;;4.57;2.40;;;;;;;-1.44;70.30;96378.63;1770609;81;21035;-77
2022/01/29 06:33:12;;;;;;;5.00;2.63;;;;;;;-1.40;69.88;96381.41;1767873;81;21045;-77
2022/01/29 06:35:41;;;;;;;4.30;1.80;;;;;;;-1.34;69.62;96379.05;1770563;81;20985;-77
2022/01/29 06:38:10;;;;;;;11.57;5.17;;;;;;;-1.31;68.83;96388.67;1767871;81;20990;-77
2022/01/29 06:40:38;;;;;;;6.03;3.10;;;;;;;-1.26;69.39;96389.73;1770269;81;20977;-77
2022/01/29 06:43:06;;;;;;;5.60;2.40;;;;;;;-1.20;68.49;96385.20;1767853;81;21519;-77
2022/01/29 06:45:35;;;;;;;2.80;1.47;;;;;;;-1.23;67.79;96392.44;1770311;81;21443;-77
2022/01/29 06:48:01;;;;;;;5.37;2.93;;;;;;;-1.22;66.71;96396.78;1767878;81;21025;-77
2022/01/29 06:50:29;;;;;;;5.33;2.80;;;;;;;-1.17;67.23;96396.55;1770335;81;20942;-77
2022/01/29 06:52:56;;;;;;;4.33;2.37;;;;;;;-1.12;66.75;96389.84;1767695;81;21494;-77
2022/01/29 06:55:22;;;;;;;6.57;2.70;;;;;;;-1.04;67.06;96394.44;1770333;81;21032;-77
2022/01/29 06:57:49;;;;;;;6.33;3.50;;;;;;;-0.99;66.26;96390.32;1764293;81;21022;-77
2022/01/29 07:00:16;;;;;;;4.53;2.93;;;;;;;-1.01;65.21;96384.19;1751779;82;21058;-78
2022/01/29 07:02:43;;;;;;;1.40;1.00;;;;;;;-0.94;65.83;96387.08;1751750;81;21023;-78
2022/01/29 07:05:12;;;;;;;2.20;1.30;;;;;;;-0.94;63.99;96391.38;1762258;81;21483;-78
2022/01/29 07:07:38;;;;;;;2.93;1.57;;;;;;;-0.89;63.64;96392.44;1751596;81;21054;-78
2022/01/29 07:10:08;;;;;;;2.13;1.33;;;;;;;-0.93;63.27;96388.86;1762250;81;20973;-78
2022/01/29 07:12:39;;;;;;;3.73;1.80;;;;;;;-0.89;63.72;96394.61;1751788;82;20985;-78
2022/01/29 07:15:08;;;;;;;2.33;1.20;;;;;;;-0.94;62.95;96393.97;1762239;81;21069;-78
2022/01/29 07:17:36;;;;;;;2.10;1.33;;;;;;;-0.98;62.47;96383.92;1751823;81;21476;-77
2022/01/29 07:20:05;;;;;;;3.63;1.40;;;;;;;-0.97;62.73;96392.14;1762228;81;21443;-78
2022/01/29 07:22:31;;;;;;;3.83;2.60;;;;;;;-1.05;62.38;96389.68;1751608;81;21547;-78
2022/01/29 07:24:58;;;;;;;3.77;1.87;;;;;;;-1.08;62.08;96388.27;1751778;81;21078;-78
2022/01/29 07:27:24;;;;;;;1.80;1.50;;;;;;;-1.09;61.05;96387.36;1751900;82;21063;-78
2022/01/29 07:29:51;;;;;;;2.83;1.53;;;;;;;-0.95;61.73;96387.03;1751787;82;21018;-78
2022/01/29 07:32:17;;;;;;;4.17;1.57;;;;;;;-0.89;61.17;96393.73;1751934;82;21014;-78
2022/01/29 07:34:44;;;;;;;5.80;2.03;;;;;;;-0.66;61.60;96388.12;1751940;82;21545;-78
2022/01/29 07:37:10;;;;;;;4.83;2.33;;;;;;;-0.54;60.16;96385.11;1762352;81;21036;-78
2022/01/29 07:39:37;;;;;;;3.13;1.50;;;;;;;-0.48;60.40;96390.50;1752009;81;21034;-78
2022/01/29 07:42:04;;;;;;;5.27;1.80;;;;;;;-0.50;59.41;96386.58;1762379;81;21586;-78
2022/01/29 07:44:31;;;;;;;3.10;1.53;;;;;;;-0.47;59.04;96386.68;1743534;82;21031;-78
2022/01/29 07:46:57;;;;;;;1.97;1.43;;;;;;;-0.51;58.07;96389.97;1762451;81;20978;-78
2022/01/29 07:49:23;;;;;;;3.87;1.47;;;;;;;-0.39;58.88;96384.78;1751922;82;21007;-78
2022/01/29 07:51:50;;;;;;;2.60;1.67;;;;;;;-0.31;58.68;96389.83;1762361;81;21002;-78
2022/01/29 07:54:16;;;;;;;3.43;1.60;;;;;;;-0.21;58.78;96393.21;1751759;82;21038;-77
2022/01/29 07:56:43;;;;;;;3.70;2.00;;;;;;;-0.11;58.03;96396.59;1762366;81;20966;-78
2022/01/29 07:59:10;;;;;;;9.87;4.60;;;;;;;-0.08;57.61;96397.13;1762270;80;21025;-77
2022/01/29 08:01:37;;;;;;;5.13;3.10;;;;;;;0.03;58.26;96400.11;1770604;81;21021;-77
2022/01/29 08:04:03;;;;;;;5.53;2.90;;;;;;;-0.09;57.07;96398.84;1767927;81;21050;-77
2022/01/29 08:06:30;;;;;;;4.03;1.60;;;;;;;-0.11;56.68;96400.48;1770515;81;20977;-78
2022/01/29 08:08:57;;;;;;;2.33;1.63;;;;;;;-0.32;57.32;96406.23;1767875;81;21033;-78
2022/01/29 08:11:25;;;;;;;3.77;1.70;;;;;;;-0.45;57.74;96403.19;1770468;81;20977;-77
2022/01/29 08:13:52;;;;;;;3.03;2.03;;;;;;;-0.58;57.50;96404.86;1767981;81;21020;-78
2022/01/29 08:16:19;;;;;;;3.47;1.90;;;;;;;-0.67;58.31;96404.50;1770389;81;21028;-78
2022/01/29 08:18:46;;;;;;;2.97;2.00;;;;;;;-0.80;58.72;96404.88;1767894;81;21488;-78
2022/01/29 08:21:15;;;;;;;4.57;2.40;;;;;;;-0.95;59.08;96402.16;1770460;81;20973;-78
2022/01/29 08:23:42;;;;;;;3.97;1.90;;;;;;;-1.04;59.49;96405.67;1768030;81;21495;-77
2022/01/29 08:26:10;;;;;;;3.50;1.60;;;;;;;-1.16;59.92;96417.76;1770353;81;20977;-77
2022/01/29 08:28:37;;;;;;;4.80;1.90;;;;;;;-1.26;60.01;96419.52;1767962;81;21041;-78
2022/01/29 08:31:04;;;;;;;4.43;2.80;;;;;;;-1.27;60.30;96422.91;1770341;81;21001;-77
2022/01/29 08:33:30;;;;;;;4.33;1.87;;;;;;;-1.33;60.53;96417.08;1767952;81;20982;-78
2022/01/29 08:35:57;;;;;;;3.70;1.70;;;;;;;-1.35;60.48;96417.84;1770485;81;21044;-78
2022/01/29 08:38:25;;;;;;;2.70;1.60;;;;;;;-1.25;60.72;96419.97;1767795;81;21021;-77
2022/01/29 08:40:54;;;;;;;3.00;1.40;;;;;;;-0.98;60.39;96419.30;1770448;81;20957;-77
2022/01/29 08:43:23;;;;;;;3.13;1.40;;;;;;;-0.82;59.89;96429.84;1767958;81;21093;-77
2022/01/29 08:45:51;;;;;;;3.50;1.60;;;;;;;-0.84;59.70;96437.95;1769682;81;20969;-78
2022/01/29 08:48:20;;;;;;;4.60;1.20;;;;;;;-1.00;59.55;96439.95;1767965;81;21017;-78
2022/01/29 08:50:47;;;;;;;4.07;1.90;;;;;;;-1.11;59.87;96433.45;1770444;81;20969;-78
2022/01/29 08:53:16;;;;;;;8.17;3.80;;;;;;;-1.03;60.15;96436.34;1767891;81;21017;-78
2022/01/29 08:55:43;;;;;;;4.17;1.50;;;;;;;-0.60;60.03;96433.72;1770435;81;21044;-78
2022/01/29 08:58:09;;;;;;;5.13;2.73;;;;;;;-0.28;57.86;96430.12;1767960;81;21551;-78
2022/01/29 09:00:38;;;;;;;4.17;2.10;;;;;;;0.09;58.07;96440.11;1770198;81;20996;-78
2022/01/29 09:03:06;;;;;;;4.73;2.37;;;;;;;0.42;56.29;96439.09;1767942;81;21021;-78
2022/01/29 09:05:34;;;;;;;4.40;2.70;;;;;;;0.58;55.14;96442.20;1770351;81;20981;-78
2022/01/29 09:08:03;;;;;;;5.67;2.93;;;;;;;0.69;55.30;96447.78;1767788;81;21045;-78
2022/01/29 09:10:31;;;;;;;5.33;2.60;;;;;;;0.76;54.78;96442.83;1770398;81;21005;-77
2022/01/29 09:12:58;;;;;;;3.90;2.30;;;;;;;0.76;54.15;96444.55;1767852;81;21495;-79
2022/01/29 09:15:24;;;;;;;8.90;3.80;;;;;;;0.73;54.92;96440.14;1770526;81;21021;-77
2022/01/29 09:17:51;;;;;;;5.87;2.10;;;;;;;0.94;54.11;96456.83;1767933;81;21009;-77
2022/01/29 09:20:18;;;;;;;3.13;1.80;;;;;;;0.66;53.40;96458.07;1770263;81;21028;-78
2022/01/29 09:22:44;;;;;;;4.43;2.10;;;;;;;0.75;53.79;96455.75;1767754;81;20986;-79
2022/01/29 09:25:11;;;;;;;5.50;3.27;;;;;;;0.96;52.76;96453.88;1770137;81;20977;-77
2022/01/29 09:27:38;;;;;;;23.33;15.23;;;;;;;0.94;53.77;96461.16;1767823;81;21021;-77
2022/01/29 09:30:07;;;;;;;5.87;3.97;;;;;;;0.67;53.84;96463.30;1746520;82;20995;-77
2022/01/29 09:32:34;;;;;;;5.17;2.57;;;;;;;0.49;53.86;96458.79;1719956;82;20999;-77
2022/01/29 09:35:01;;;;;;;7.40;3.00;;;;;;;0.41;53.44;96458.11;1746440;82;21035;-78
2022/01/29 09:37:28;;;;;;;5.80;2.80;;;;;;;0.48;54.32;96457.00;1746575;82;21015;-78
2022/01/29 09:39:54;;;;;;;7.00;3.77;;;;;;;0.63;54.54;96455.83;1746394;82;20987;-77
2022/01/29 09:42:21;;;;;;;4.90;2.70;;;;;;;0.71;54.00;96455.20;1746293;82;21062;-78
2022/01/29 09:44:48;;;;;;;6.07;3.90;;;;;;;0.79;54.71;96452.02;1746635;82;20995;-78
2022/01/29 09:47:18;;;;;;;7.83;3.97;;;;;;;0.75;54.42;96442.77;1746503;82;21016;-77
2022/01/29 09:49:45;;;;;;;8.97;5.07;;;;;;;0.67;54.25;96449.01;1746567;82;20978;-78
2022/01/29 09:52:11;;;;;;;11.87;6.07;;;;;;;0.62;54.93;96438.46;1746503;82;21488;-77
2022/01/29 09:54:38;;;;;;;11.80;7.47;;;;;;;0.62;54.74;96441.06;1770383;81;20981;-77
2022/01/29 09:57:05;;;;;;;8.53;4.93;;;;;;;0.55;54.72;96436.48;1767659;81;21076;-77
2022/01/29 09:59:32;;;;;;;5.50;2.90;;;;;;;0.35;55.14;96431.95;1766041;81;21113;-77
2022/01/29 10:01:58;;;;;;;5.63;3.37;;;;;;;0.18;55.44;96439.56;1746300;82;21071;-78
2022/01/29 10:04:27;;;;;;;8.03;2.10;;;;;;;0.24;55.48;96437.17;1762646;81;21504;-78
2022/01/29 10:07:13;;;;;;;5.90;3.20;;;;;;;0.16;54.02;96438.62;1746324;82;21007;-77
2022/01/29 10:09:40;;;;;;;3.97;3.03;;;;;;;0.09;54.43;96428.86;1762606;81;21487;-77
2022/01/29 10:12:27;;;;;;;7.90;4.10;;;;;;;0.11;55.21;96424.19;1746210;82;21022;-78
2022/01/29 10:15:00;;;;;;;6.73;4.13;;;;;;;0.17;55.43;96431.30;1762785;81;21483;-77
2022/01/29 10:17:47;;;;;;;8.13;4.55;;;;;;;0.43;55.48;96429.61;1746173;82;21054;-78
2022/01/29 10:20:26;;;;;;;6.30;3.37;;;;;;;0.60;54.79;96427.13;1762871;81;21002;-77
2022/01/29 10:22:56;;;;;;;4.27;2.47;;;;;;;1.05;53.89;96414.28;1746229;82;21027;-77
2022/01/29 10:25:26;;;;;;;6.90;3.40;;;;;;;1.96;52.50;96399.61;1762450;81;21479;-77
2022/01/29 10:28:07;;;;;;;5.13;3.20;;;;;;;2.56;50.02;96394.25;1745976;82;21022;-77
2022/01/29 10:30:38;;;;;;;6.67;3.17;;;;;;;2.85;48.14;96386.69;1753647;81;21455;-77
2022/01/29 10:33:38;;;;;;;5.90;3.90;;;;;;;2.99;47.20;96392.69;1746340;82;21026;-77
2022/01/29 10:36:09;;;;;;;6.57;3.30;;;;;;;3.43;46.78;96383.70;1762755;81;21017;-77
2022/01/29 10:38:46;;;;;;;5.23;2.83;;;;;;;3.61;45.82;96392.34;1744588;82;21011;-77
2022/01/29 10:41:26;;;;;;;4.17;2.50;;;;;;;3.53;44.90;96394.31;1762790;81;21009;-77
2022/01/29 10:44:20;;;;;;;6.03;3.67;;;;;;;3.83;44.79;96401.90;1746359;82;20995;-77
2022/01/29 10:46:53;;;;;;;4.58;2.02;;;;;;;4.33;45.68;96404.62;1762977;81;20974;-77
2022/01/29 10:49:32;;;;;;;3.92;2.50;;;;;;;4.45;43.03;96400.93;1746486;82;20967;-77
2022/01/29 10:52:04;;;;;;;3.97;2.40;;;;;;;4.29;42.60;96398.47;1762797;81;20981;-77
2022/01/29 10:54:35;;;;;;;3.80;2.47;;;;;;;4.12;42.04;96399.88;1746277;82;20995;-77
2022/01/29 10:57:09;;;;;;;5.77;2.80;;;;;;;4.02;41.95;96400.55;1762700;81;21535;-77
2022/01/29 10:59:52;;;;;;;5.63;2.77;;;;;;;3.98;43.46;96404.84;1746982;82;21015;-77
2022/01/29 11:02:24;;;;;;;5.58;3.22;;;;;;;3.96;42.44;96401.75;1762362;81;20993;-76
2022/01/29 11:04:50;;;;;;;3.57;2.13;;;;;;;3.70;43.08;96398.16;1751913;82;20967;-77
2022/01/29 11:07:18;;;;;;;4.30;2.50;;;;;;;3.60;43.11;96396.20;1751517;82;21006;-77
2022/01/29 11:09:52;;;;;;;4.37;2.60;;;;;;;4.19;43.45;96390.02;1751477;82;21018;-75
2022/01/29 11:12:20;;;;;;;;;;;;;;;4.84;41.49;96378.95;1754438;81;21006;-75
2022/01/29 11:14:51;;;;;;;6.27;3.73;;;;;;;5.27;39.75;96376.12;1751751;81;20154;-74
2022/01/29 11:17:20;;;;;;;5.20;2.67;;;;;;;5.32;38.70;96374.45;1751759;81;21047;-74
2022/01/29 11:19:47;;;;;;;5.13;2.70;;;;;;;5.89;37.96;96369.50;1751619;81;21461;-75
2022/01/29 11:22:20;;;;;;;4.23;2.37;;;;;;;6.44;38.03;96370.58;1751882;81;21014;-75
2022/01/29 11:24:51;;;;;;;5.20;2.70;;;;;;;6.79;36.51;96356.92;1750956;82;21054;-75
2022/01/29 11:27:27;;;;;;;4.65;2.52;;;;;;;7.30;35.84;96362.97;1751613;82;21037;-75
2022/01/29 11:30:01;;;;;;;3.05;2.17;;;;;;;6.93;35.21;96357.92;1751781;82;21138;-75
2022/01/29 11:32:33;;;;;;;4.08;2.20;;;;;;;7.56;35.82;96368.84;1751889;81;21437;-75
2022/01/29 11:35:07;;;;;;;3.47;2.15;;;;;;;8.24;35.14;96362.98;1751696;81;21002;-76
2022/01/29 11:37:43;;;;;;;4.25;2.22;;;;;;;8.83;33.11;96363.98;1751923;81;21030;-75
2022/01/29 11:40:17;;;;;;;4.67;2.42;;;;;;;8.88;32.71;96364.86;1752173;82;21010;-76
2022/01/29 11:43:11;;;;;;;4.10;2.70;;;;;;;9.20;33.02;96363.11;1751886;81;21010;-76
2022/01/29 11:45:49;;;;;;;2.80;2.35;;;;;;;9.82;32.48;96353.30;1751949;81;21083;-75
2022/01/29 11:48:34;;;;;;;3.55;2.33;;;;;;;10.22;30.05;96347.41;1751836;81;21015;-75
2022/01/29 11:51:08;;;;;;;6.12;3.90;;;;;;;10.34;30.06;96340.80;1751766;82;21075;-75
2022/01/29 11:53:54;;;;;;;3.40;2.55;;;;;;;10.67;29.94;96337.95;1751307;82;20990;-76